sensor_id;sensor_type;location;lat;lon;timestamp;pressure;altitude;pressure_sealevel;temperature;humidity
82728;BME280;72459;50.110;8.750;2024-01-27T00:01:24;102475.16;;;5.96;78.92
82728;BME280;72459;50.110;8.750;2024-01-27T00:03:50;102481.28;;;5.96;79.41
82728;BME280;72459;50.110;8.750;2024-01-27T00:06:15;102479.97;;;5.91;77.83
82728;BME280;72459;50.110;8.750;2024-01-27T00:08:41;102480.44;;;5.87;83.15
82728;BME280;72459;50.110;8.750;2024-01-27T00:11:06;102477.38;;;5.83;82.73
82728;BME280;72459;50.110;8.750;2024-01-27T00:13:31;102469.91;;;5.77;81.93
82728;BME280;72459;50.110;8.750;2024-01-27T00:15:57;102476.16;;;5.69;81.58
82728;BME280;72459;50.110;8.750;2024-01-27T00:18:22;102472.72;;;5.60;80.47
82728;BME280;72459;50.110;8.750;2024-01-27T00:20:48;102474.53;;;5.61;83.05
82728;BME280;72459;50.110;8.750;2024-01-27T00:23:14;102470.34;;;5.53;81.12
82728;BME280;72459;50.110;8.750;2024-01-27T00:25:39;102474.50;;;5.51;83.40
82728;BME280;72459;50.110;8.750;2024-01-27T00:28:04;102472.25;;;5.45;83.26
82728;BME280;72459;50.110;8.750;2024-01-27T00:30:30;102474.44;;;5.40;83.79
82728;BME280;72459;50.110;8.750;2024-01-27T00:32:55;102474.44;;;5.40;83.37
82728;BME280;72459;50.110;8.750;2024-01-27T00:35:21;102482.13;;;5.39;80.29
82728;BME280;72459;50.110;8.750;2024-01-27T00:37:48;102482.25;;;5.40;83.64
82728;BME280;72459;50.110;8.750;2024-01-27T00:40:14;102480.16;;;5.36;82.48
82728;BME280;72459;50.110;8.750;2024-01-27T00:42:40;102480.50;;;5.31;82.71
82728;BME280;72459;50.110;8.750;2024-01-27T00:45:06;102486.38;;;5.28;82.70
82728;BME280;72459;50.110;8.750;2024-01-27T00:47:32;102490.25;;;5.23;79.59
82728;BME280;72459;50.110;8.750;2024-01-27T00:49:57;102489.19;;;5.21;82.74
82728;BME280;72459;50.110;8.750;2024-01-27T00:52:23;102489.97;;;5.20;83.74
82728;BME280;72459;50.110;8.750;2024-01-27T00:54:48;102494.84;;;5.17;84.38
82728;BME280;72459;50.110;8.750;2024-01-27T00:57:14;102490.91;;;5.12;83.72
82728;BME280;72459;50.110;8.750;2024-01-27T00:59:39;102499.66;;;5.13;84.83
82728;BME280;72459;50.110;8.750;2024-01-27T01:02:06;102499.84;;;5.05;82.46
82728;BME280;72459;50.110;8.750;2024-01-27T01:04:33;102500.63;;;5.04;82.02
82728;BME280;72459;50.110;8.750;2024-01-27T01:06:58;102497.88;;;5.03;84.71
82728;BME280;72459;50.110;8.750;2024-01-27T01:09:24;102511.81;;;5.03;84.08
82728;BME280;72459;50.110;8.750;2024-01-27T01:11:49;102510.34;;;4.97;83.34
82728;BME280;72459;50.110;8.750;2024-01-27T01:14:15;102516.97;;;4.93;83.50
82728;BME280;72459;50.110;8.750;2024-01-27T01:16:40;102514.34;;;4.93;83.78
82728;BME280;72459;50.110;8.750;2024-01-27T01:19:06;102516.03;;;4.93;83.71
82728;BME280;72459;50.110;8.750;2024-01-27T01:21:32;102518.66;;;4.93;82.32
82728;BME280;72459;50.110;8.750;2024-01-27T01:23:57;102518.22;;;4.88;82.62
82728;BME280;72459;50.110;8.750;2024-01-27T01:26:24;102511.94;;;4.86;84.47
82728;BME280;72459;50.110;8.750;2024-01-27T01:28:50;102519.47;;;4.83;84.07
82728;BME280;72459;50.110;8.750;2024-01-27T01:31:15;102522.09;;;4.83;83.95
82728;BME280;72459;50.110;8.750;2024-01-27T01:33:40;102526.22;;;4.81;83.53
82728;BME280;72459;50.110;8.750;2024-01-27T01:36:06;102530.09;;;4.76;83.82
82728;BME280;72459;50.110;8.750;2024-01-27T01:38:31;102532.84;;;4.77;83.66
82728;BME280;72459;50.110;8.750;2024-01-27T01:40:57;102534.88;;;4.71;84.60
82728;BME280;72459;50.110;8.750;2024-01-27T01:43:22;102545.78;;;4.67;83.32
82728;BME280;72459;50.110;8.750;2024-01-27T01:45:47;102546.06;;;4.70;79.39
82728;BME280;72459;50.110;8.750;2024-01-27T01:48:15;102551.75;;;4.66;84.12
82728;BME280;72459;50.110;8.750;2024-01-27T01:50:42;102549.91;;;4.65;82.64
82728;BME280;72459;50.110;8.750;2024-01-27T01:53:07;102550.97;;;4.67;83.33
82728;BME280;72459;50.110;8.750;2024-01-27T01:55:34;102556.97;;;4.66;84.64
82728;BME280;72459;50.110;8.750;2024-01-27T01:57:59;102555.91;;;4.64;83.78
82728;BME280;72459;50.110;8.750;2024-01-27T02:00:25;102549.78;;;4.64;82.85
82728;BME280;72459;50.110;8.750;2024-01-27T02:02:50;102546.09;;;4.62;84.16
82728;BME280;72459;50.110;8.750;2024-01-27T02:05:15;102550.09;;;4.58;82.30
82728;BME280;72459;50.110;8.750;2024-01-27T02:07:41;102552.56;;;4.57;84.35
82728;BME280;72459;50.110;8.750;2024-01-27T02:10:14;102549.81;;;4.55;83.69
82728;BME280;72459;50.110;8.750;2024-01-27T02:12:44;102554.06;;;4.55;84.89
82728;BME280;72459;50.110;8.750;2024-01-27T02:15:13;102555.75;;;4.54;79.61
82728;BME280;72459;50.110;8.750;2024-01-27T02:17:39;102555.03;;;4.55;84.17
82728;BME280;72459;50.110;8.750;2024-01-27T02:20:06;102555.63;;;4.53;85.04
82728;BME280;72459;50.110;8.750;2024-01-27T02:22:32;102563.28;;;4.51;85.08
82728;BME280;72459;50.110;8.750;2024-01-27T02:24:58;102570.06;;;4.40;76.56
82728;BME280;72459;50.110;8.750;2024-01-27T02:27:23;102566.13;;;4.27;76.12
82728;BME280;72459;50.110;8.750;2024-01-27T02:29:49;102570.41;;;4.26;83.63
82728;BME280;72459;50.110;8.750;2024-01-27T02:32:14;102571.84;;;4.14;82.57
82728;BME280;72459;50.110;8.750;2024-01-27T02:34:39;102573.41;;;4.03;79.02
82728;BME280;72459;50.110;8.750;2024-01-27T02:37:05;102565.75;;;3.96;77.01
82728;BME280;72459;50.110;8.750;2024-01-27T02:39:31;102567.28;;;3.94;81.56
82728;BME280;72459;50.110;8.750;2024-01-27T02:41:56;102582.13;;;3.95;85.07
82728;BME280;72459;50.110;8.750;2024-01-27T02:44:21;102576.91;;;3.87;81.70
82728;BME280;72459;50.110;8.750;2024-01-27T02:46:47;102578.00;;;3.80;79.68
82728;BME280;72459;50.110;8.750;2024-01-27T02:49:12;102571.72;;;3.78;78.59
82728;BME280;72459;50.110;8.750;2024-01-27T02:51:38;102580.91;;;3.74;76.48
82728;BME280;72459;50.110;8.750;2024-01-27T02:54:03;102574.78;;;3.74;80.78
82728;BME280;72459;50.110;8.750;2024-01-27T02:56:28;102578.63;;;3.69;79.11
82728;BME280;72459;50.110;8.750;2024-01-27T02:58:54;102578.00;;;3.63;80.91
82728;BME280;72459;50.110;8.750;2024-01-27T03:01:21;102572.66;;;3.61;80.70
82728;BME280;72459;50.110;8.750;2024-01-27T03:03:46;102579.38;;;3.59;82.04
82728;BME280;72459;50.110;8.750;2024-01-27T03:06:13;102583.66;;;3.59;79.54
82728;BME280;72459;50.110;8.750;2024-01-27T03:08:38;102580.75;;;3.56;83.44
82728;BME280;72459;50.110;8.750;2024-01-27T03:11:03;102582.44;;;3.55;84.32
82728;BME280;72459;50.110;8.750;2024-01-27T03:13:29;102587.19;;;3.50;82.11
82728;BME280;72459;50.110;8.750;2024-01-27T03:15:54;102592.06;;;3.47;83.17
82728;BME280;72459;50.110;8.750;2024-01-27T03:18:21;102585.19;;;3.48;84.85
82728;BME280;72459;50.110;8.750;2024-01-27T03:20:46;102587.34;;;3.43;84.30
82728;BME280;72459;50.110;8.750;2024-01-27T03:23:11;102590.09;;;3.45;85.41
82728;BME280;72459;50.110;8.750;2024-01-27T03:25:37;102585.19;;;3.39;84.62
82728;BME280;72459;50.110;8.750;2024-01-27T03:28:02;102586.09;;;3.40;80.44
82728;BME280;72459;50.110;8.750;2024-01-27T03:30:27;102583.34;;;3.38;78.50
82728;BME280;72459;50.110;8.750;2024-01-27T03:32:53;102583.50;;;3.40;84.31
82728;BME280;72459;50.110;8.750;2024-01-27T03:35:18;102590.38;;;3.39;84.79
82728;BME280;72459;50.110;8.750;2024-01-27T03:37:44;102584.88;;;3.36;85.61
82728;BME280;72459;50.110;8.750;2024-01-27T03:40:10;102578.00;;;3.28;84.17
82728;BME280;72459;50.110;8.750;2024-01-27T03:42:36;102592.81;;;3.29;85.48
82728;BME280;72459;50.110;8.750;2024-01-27T03:45:01;102587.47;;;3.28;85.05
82728;BME280;72459;50.110;8.750;2024-01-27T03:47:27;102583.63;;;3.24;85.51
82728;BME280;72459;50.110;8.750;2024-01-27T03:49:52;102588.66;;;3.23;85.49
82728;BME280;72459;50.110;8.750;2024-01-27T03:52:18;102586.34;;;3.17;85.23
82728;BME280;72459;50.110;8.750;2024-01-27T03:54:43;102588.81;;;3.15;86.01
82728;BME280;72459;50.110;8.750;2024-01-27T03:57:08;102597.66;;;3.09;85.29
82728;BME280;72459;50.110;8.750;2024-01-27T03:59:34;102593.38;;;3.09;86.04
82728;BME280;72459;50.110;8.750;2024-01-27T04:01:59;102596.41;;;3.05;84.93
82728;BME280;72459;50.110;8.750;2024-01-27T04:04:25;102602.53;;;3.06;85.89
82728;BME280;72459;50.110;8.750;2024-01-27T04:06:50;102599.31;;;3.00;83.85
82728;BME280;72459;50.110;8.750;2024-01-27T04:09:17;102599.63;;;3.03;85.60
82728;BME280;72459;50.110;8.750;2024-01-27T04:11:42;102603.59;;;2.99;85.66
82728;BME280;72459;50.110;8.750;2024-01-27T04:14:07;102606.78;;;2.97;85.98
82728;BME280;72459;50.110;8.750;2024-01-27T04:16:33;102607.09;;;2.91;85.74
82728;BME280;72459;50.110;8.750;2024-01-27T04:18:58;102620.34;;;2.85;84.96
82728;BME280;72459;50.110;8.750;2024-01-27T04:21:24;102612.72;;;2.87;85.84
82728;BME280;72459;50.110;8.750;2024-01-27T04:23:49;102612.56;;;2.85;85.87
82728;BME280;72459;50.110;8.750;2024-01-27T04:26:14;102613.31;;;2.84;85.74
82728;BME280;72459;50.110;8.750;2024-01-27T04:28:41;102609.94;;;2.77;85.68
82728;BME280;72459;50.110;8.750;2024-01-27T04:31:06;102624.75;;;2.78;84.03
82728;BME280;72459;50.110;8.750;2024-01-27T04:33:31;102616.06;;;2.77;86.12
82728;BME280;72459;50.110;8.750;2024-01-27T04:35:57;102615.13;;;2.77;85.64
82728;BME280;72459;50.110;8.750;2024-01-27T04:38:23;102614.22;;;2.76;85.85
82728;BME280;72459;50.110;8.750;2024-01-27T04:40:50;102620.00;;;2.74;86.15
82728;BME280;72459;50.110;8.750;2024-01-27T04:43:16;102619.84;;;2.72;83.01
82728;BME280;72459;50.110;8.750;2024-01-27T04:45:42;102624.72;;;2.69;85.10
82728;BME280;72459;50.110;8.750;2024-01-27T04:48:08;102625.47;;;2.68;85.05
82728;BME280;72459;50.110;8.750;2024-01-27T04:50:33;102627.91;;;2.67;83.48
82728;BME280;72459;50.110;8.750;2024-01-27T04:52:59;102634.16;;;2.60;83.16
82728;BME280;72459;50.110;8.750;2024-01-27T04:55:24;102633.97;;;2.59;85.63
82728;BME280;72459;50.110;8.750;2024-01-27T04:57:50;102630.44;;;2.58;85.67
82728;BME280;72459;50.110;8.750;2024-01-27T05:00:15;102639.75;;;2.56;85.43
82728;BME280;72459;50.110;8.750;2024-01-27T05:02:41;102637.16;;;2.56;85.80
82728;BME280;72459;50.110;8.750;2024-01-27T05:05:08;102631.63;;;2.53;85.75
82728;BME280;72459;50.110;8.750;2024-01-27T05:07:34;102637.59;;;2.52;85.64
82728;BME280;72459;50.110;8.750;2024-01-27T05:10:00;102638.03;;;2.48;83.99
82728;BME280;72459;50.110;8.750;2024-01-27T05:12:25;102638.94;;;2.48;85.55
82728;BME280;72459;50.110;8.750;2024-01-27T05:14:51;102647.75;;;2.42;84.20
82728;BME280;72459;50.110;8.750;2024-01-27T05:17:16;102647.75;;;2.42;85.44
82728;BME280;72459;50.110;8.750;2024-01-27T05:19:42;102650.78;;;2.38;84.04
82728;BME280;72459;50.110;8.750;2024-01-27T05:22:07;102646.53;;;2.38;85.66
82728;BME280;72459;50.110;8.750;2024-01-27T05:24:32;102655.66;;;2.35;85.95
82728;BME280;72459;50.110;8.750;2024-01-27T05:26:59;102655.81;;;2.36;85.36
82728;BME280;72459;50.110;8.750;2024-01-27T05:29:25;102664.78;;;2.31;85.61
82728;BME280;72459;50.110;8.750;2024-01-27T05:31:51;102664.31;;;2.27;84.83
82728;BME280;72459;50.110;8.750;2024-01-27T05:34:16;102669.00;;;2.22;85.22
82728;BME280;72459;50.110;8.750;2024-01-27T05:36:42;102678.78;;;2.25;85.98
82728;BME280;72459;50.110;8.750;2024-01-27T05:39:07;102670.19;;;2.17;84.39
82728;BME280;72459;50.110;8.750;2024-01-27T05:41:33;102655.88;;;2.20;86.01
82728;BME280;72459;50.110;8.750;2024-01-27T05:43:58;102660.75;;;2.17;86.21
82728;BME280;72459;50.110;8.750;2024-01-27T05:46:24;102663.50;;;2.19;85.87
82728;BME280;72459;50.110;8.750;2024-01-27T05:48:50;102669.88;;;2.14;85.88
82728;BME280;72459;50.110;8.750;2024-01-27T05:51:18;102678.84;;;2.09;86.02
82728;BME280;72459;50.110;8.750;2024-01-27T05:53:44;102674.81;;;2.04;83.69
82728;BME280;72459;50.110;8.750;2024-01-27T05:56:10;102675.59;;;2.03;85.75
82728;BME280;72459;50.110;8.750;2024-01-27T05:58:37;102678.19;;;2.03;85.68
82728;BME280;72459;50.110;8.750;2024-01-27T06:01:02;102681.34;;;2.00;85.97
82728;BME280;72459;50.110;8.750;2024-01-27T06:03:27;102682.53;;;1.95;86.02
82728;BME280;72459;50.110;8.750;2024-01-27T06:05:53;102694.06;;;1.90;85.98
82728;BME280;72459;50.110;8.750;2024-01-27T06:08:19;102683.53;;;1.88;85.95
82728;BME280;72459;50.110;8.750;2024-01-27T06:10:45;102692.47;;;1.83;86.05
82728;BME280;72459;50.110;8.750;2024-01-27T06:13:11;102676.91;;;1.83;86.18
82728;BME280;72459;50.110;8.750;2024-01-27T06:15:36;102681.19;;;1.83;86.13
82728;BME280;72459;50.110;8.750;2024-01-27T06:18:01;102689.06;;;1.76;85.79
82728;BME280;72459;50.110;8.750;2024-01-27T06:20:27;102691.22;;;1.80;86.08
82728;BME280;72459;50.110;8.750;2024-01-27T06:22:52;102692.72;;;1.78;85.63
82728;BME280;72459;50.110;8.750;2024-01-27T06:25:18;102689.06;;;1.76;85.66
82728;BME280;72459;50.110;8.750;2024-01-27T06:27:43;102702.09;;;1.69;84.99
82728;BME280;72459;50.110;8.750;2024-01-27T06:30:09;102702.69;;;1.66;85.97
82728;BME280;72459;50.110;8.750;2024-01-27T06:32:35;102698.09;;;1.64;85.58
82728;BME280;72459;50.110;8.750;2024-01-27T06:35:01;102706.63;;;1.63;85.57
82728;BME280;72459;50.110;8.750;2024-01-27T06:37:26;102713.13;;;1.59;85.34
82728;BME280;72459;50.110;8.750;2024-01-27T06:39:52;102706.63;;;1.63;86.11
82728;BME280;72459;50.110;8.750;2024-01-27T06:42:17;102722.41;;;1.57;85.68
82728;BME280;72459;50.110;8.750;2024-01-27T06:44:42;102715.97;;;1.53;85.46
82728;BME280;72459;50.110;8.750;2024-01-27T06:47:08;102713.72;;;1.56;86.44
82728;BME280;72459;50.110;8.750;2024-01-27T06:49:33;102719.31;;;1.52;85.68
82728;BME280;72459;50.110;8.750;2024-01-27T06:51:59;102725.41;;;1.53;86.23
82728;BME280;72459;50.110;8.750;2024-01-27T06:54:25;102734.53;;;1.49;85.98
82728;BME280;72459;50.110;8.750;2024-01-27T06:56:51;102729.34;;;1.49;86.06
82728;BME280;72459;50.110;8.750;2024-01-27T06:59:16;102722.72;;;1.44;86.11
82728;BME280;72459;50.110;8.750;2024-01-27T07:01:48;102722.31;;;1.48;86.08
82728;BME280;72459;50.110;8.750;2024-01-27T07:04:14;102721.41;;;1.48;85.66
82728;BME280;72459;50.110;8.750;2024-01-27T07:06:40;102724.75;;;1.47;86.17
82728;BME280;72459;50.110;8.750;2024-01-27T07:09:05;102733.44;;;1.47;86.14
82728;BME280;72459;50.110;8.750;2024-01-27T07:11:32;102733.09;;;1.44;85.98
82728;BME280;72459;50.110;8.750;2024-01-27T07:13:57;102724.66;;;1.38;85.79
82728;BME280;72459;50.110;8.750;2024-01-27T07:16:24;102729.41;;;1.42;85.79
82728;BME280;72459;50.110;8.750;2024-01-27T07:18:49;102727.06;;;1.37;85.34
82728;BME280;72459;50.110;8.750;2024-01-27T07:21:15;102719.81;;;1.41;85.62
82728;BME280;72459;50.110;8.750;2024-01-27T07:23:44;102723.91;;;1.39;86.36
82728;BME280;72459;50.110;8.750;2024-01-27T07:26:10;102731.91;;;1.34;84.88
82728;BME280;72459;50.110;8.750;2024-01-27T07:28:38;102732.50;;;1.31;84.61
82728;BME280;72459;50.110;8.750;2024-01-27T07:31:04;102732.50;;;1.31;85.88
82728;BME280;72459;50.110;8.750;2024-01-27T07:33:30;102726.25;;;1.22;83.20
82728;BME280;72459;50.110;8.750;2024-01-27T07:35:56;102729.59;;;1.21;83.88
82728;BME280;72459;50.110;8.750;2024-01-27T07:38:22;102729.69;;;1.30;85.86
82728;BME280;72459;50.110;8.750;2024-01-27T07:40:47;102733.97;;;1.29;84.90
82728;BME280;72459;50.110;8.750;2024-01-27T07:43:13;102734.72;;;1.28;83.68
82728;BME280;72459;50.110;8.750;2024-01-27T07:45:39;102741.72;;;1.29;83.63
82728;BME280;72459;50.110;8.750;2024-01-27T07:48:05;102724.75;;;1.24;83.28
82728;BME280;72459;50.110;8.750;2024-01-27T07:50:30;102726.44;;;1.23;84.01
82728;BME280;72459;50.110;8.750;2024-01-27T07:52:56;102734.88;;;1.30;85.48
82728;BME280;72459;50.110;8.750;2024-01-27T07:55:21;102736.75;;;1.31;84.14
82728;BME280;72459;50.110;8.750;2024-01-27T07:57:47;102741.53;;;1.35;85.53
82728;BME280;72459;50.110;8.750;2024-01-27T08:00:12;102746.97;;;1.45;85.82
82728;BME280;72459;50.110;8.750;2024-01-27T08:02:38;102746.22;;;1.46;84.88
82728;BME280;72459;50.110;8.750;2024-01-27T08:05:03;102747.13;;;1.46;84.45
82728;BME280;72459;50.110;8.750;2024-01-27T08:07:29;102751.75;;;1.49;83.76
82728;BME280;72459;50.110;8.750;2024-01-27T08:09:55;102745.22;;;1.52;83.84
82728;BME280;72459;50.110;8.750;2024-01-27T08:12:22;102755.69;;;1.61;85.55
82728;BME280;72459;50.110;8.750;2024-01-27T08:14:47;102755.84;;;1.63;84.09
82728;BME280;72459;50.110;8.750;2024-01-27T08:17:13;102761.78;;;1.62;83.22
82728;BME280;72459;50.110;8.750;2024-01-27T08:19:38;102761.28;;;1.73;85.59
82728;BME280;72459;50.110;8.750;2024-01-27T08:22:03;102761.22;;;1.80;85.65
82728;BME280;72459;50.110;8.750;2024-01-27T08:24:29;102756.53;;;1.84;84.53
82728;BME280;72459;50.110;8.750;2024-01-27T08:26:54;102751.94;;;1.82;84.37
82728;BME280;72459;50.110;8.750;2024-01-27T08:29:20;102758.13;;;1.91;85.68
82728;BME280;72459;50.110;8.750;2024-01-27T08:31:45;102755.47;;;1.98;85.52
82728;BME280;72459;50.110;8.750;2024-01-27T08:34:10;102761.91;;;2.02;85.62
82728;BME280;72459;50.110;8.750;2024-01-27T08:36:37;102766.84;;;2.07;84.89
82728;BME280;72459;50.110;8.750;2024-01-27T08:39:03;102766.25;;;2.10;84.58
82728;BME280;72459;50.110;8.750;2024-01-27T08:41:29;102779.13;;;2.17;85.81
82728;BME280;72459;50.110;8.750;2024-01-27T08:43:55;102776.13;;;2.21;85.38
82728;BME280;72459;50.110;8.750;2024-01-27T08:46:20;102778.28;;;2.25;84.72
82728;BME280;72459;50.110;8.750;2024-01-27T08:48:47;102780.47;;;2.29;84.51
82728;BME280;72459;50.110;8.750;2024-01-27T08:51:13;102781.88;;;2.34;84.69
82728;BME280;72459;50.110;8.750;2024-01-27T08:53:41;102774.59;;;2.39;84.05
82728;BME280;72459;50.110;8.750;2024-01-27T08:56:06;102779.34;;;2.43;83.25
82728;BME280;72459;50.110;8.750;2024-01-27T08:58:32;102778.91;;;2.47;83.84
82728;BME280;72459;50.110;8.750;2024-01-27T09:00:57;102785.53;;;2.52;82.50
82728;BME280;72459;50.110;8.750;2024-01-27T09:03:23;102784.69;;;2.60;84.62
82728;BME280;72459;50.110;8.750;2024-01-27T09:05:48;102784.59;;;2.67;84.80
82728;BME280;72459;50.110;8.750;2024-01-27T09:08:15;102788.59;;;2.72;84.98
82728;BME280;72459;50.110;8.750;2024-01-27T09:10:41;102781.28;;;2.77;84.86
82728;BME280;72459;50.110;8.750;2024-01-27T09:13:06;102782.88;;;2.83;81.74
82728;BME280;72459;50.110;8.750;2024-01-27T09:15:32;102786.72;;;2.87;82.45
82728;BME280;72459;50.110;8.750;2024-01-27T09:17:57;102790.88;;;2.94;82.06
82728;BME280;72459;50.110;8.750;2024-01-27T09:20:22;102786.66;;;3.03;84.61
82728;BME280;72459;50.110;8.750;2024-01-27T09:22:48;102787.41;;;3.02;81.60
82728;BME280;72459;50.110;8.750;2024-01-27T09:25:15;102800.28;;;3.09;81.85
82728;BME280;72459;50.110;8.750;2024-01-27T09:27:41;102792.19;;;3.14;83.84
82728;BME280;72459;50.110;8.750;2024-01-27T09:30:07;102791.16;;;3.21;84.57
82728;BME280;72459;50.110;8.750;2024-01-27T09:32:32;102784.81;;;3.26;82.17
82728;BME280;72459;50.110;8.750;2024-01-27T09:34:58;102794.59;;;3.29;80.85
82728;BME280;72459;50.110;8.750;2024-01-27T09:37:23;102796.13;;;3.27;79.40
82728;BME280;72459;50.110;8.750;2024-01-27T09:39:49;102802.88;;;3.33;83.70
82728;BME280;72459;50.110;8.750;2024-01-27T09:42:15;102801.81;;;3.40;83.94
82728;BME280;72459;50.110;8.750;2024-01-27T09:44:43;102804.91;;;3.44;83.66
82728;BME280;72459;50.110;8.750;2024-01-27T09:47:08;102809.06;;;3.51;82.15
82728;BME280;72459;50.110;8.750;2024-01-27T09:49:35;102807.25;;;3.59;80.83
82728;BME280;72459;50.110;8.750;2024-01-27T09:52:03;102815.22;;;3.60;80.50
82728;BME280;72459;50.110;8.750;2024-01-27T09:54:28;102814.91;;;3.66;81.63
82728;BME280;72459;50.110;8.750;2024-01-27T09:56:54;102817.53;;;3.66;79.35
82728;BME280;72459;50.110;8.750;2024-01-27T09:59:22;102821.34;;;3.69;78.32
82728;BME280;72459;50.110;8.750;2024-01-27T10:01:48;102820.91;;;3.73;82.90
82728;BME280;72459;50.110;8.750;2024-01-27T10:04:15;102821.69;;;3.81;84.05
82728;BME280;72459;50.110;8.750;2024-01-27T10:06:41;102816.19;;;3.78;81.67
82728;BME280;72459;50.110;8.750;2024-01-27T10:09:06;102816.03;;;3.76;78.76
82728;BME280;72459;50.110;8.750;2024-01-27T10:11:36;102813.56;;;3.78;80.22
82728;BME280;72459;50.110;8.750;2024-01-27T10:14:03;102809.75;;;3.83;80.06
82728;BME280;72459;50.110;8.750;2024-01-27T10:16:28;102805.31;;;3.82;79.11
82728;BME280;72459;50.110;8.750;2024-01-27T10:19:04;102806.72;;;3.87;80.21
82728;BME280;72459;50.110;8.750;2024-01-27T10:21:30;102794.22;;;3.92;79.65
82728;BME280;72459;50.110;8.750;2024-01-27T10:23:55;102792.06;;;3.96;82.94
82728;BME280;72459;50.110;8.750;2024-01-27T10:26:20;102803.41;;;3.97;77.82
82728;BME280;72459;50.110;8.750;2024-01-27T10:28:55;102808.00;;;3.99;80.60
82728;BME280;72459;50.110;8.750;2024-01-27T10:31:29;102808.16;;;4.01;77.53
82728;BME280;72459;50.110;8.750;2024-01-27T10:33:56;102799.59;;;4.10;75.78
82728;BME280;72459;50.110;8.750;2024-01-27T10:36:24;102796.06;;;4.10;75.72
82728;BME280;72459;50.110;8.750;2024-01-27T10:38:51;102793.31;;;4.17;80.81
82728;BME280;72459;50.110;8.750;2024-01-27T10:41:25;102785.97;;;4.22;79.67
82728;BME280;72459;50.110;8.750;2024-01-27T10:43:53;102781.09;;;4.25;78.70
82728;BME280;72459;50.110;8.750;2024-01-27T10:46:21;102779.84;;;4.30;81.54
82728;BME280;72459;50.110;8.750;2024-01-27T10:48:51;102776.19;;;4.36;83.12
82728;BME280;72459;50.110;8.750;2024-01-27T10:51:29;102774.03;;;4.41;83.41
82728;BME280;72459;50.110;8.750;2024-01-27T10:54:01;102770.50;;;4.40;77.04
82728;BME280;72459;50.110;8.750;2024-01-27T10:56:29;102756.88;;;4.43;79.19
82728;BME280;72459;50.110;8.750;2024-01-27T10:58:57;102754.13;;;4.50;79.85
82728;BME280;72459;50.110;8.750;2024-01-27T11:01:24;102744.91;;;4.54;78.06
82728;BME280;72459;50.110;8.750;2024-01-27T11:03:52;102738.81;;;4.62;81.62
82728;BME280;72459;50.110;8.750;2024-01-27T11:06:21;102729.63;;;4.65;81.38
82728;BME280;72459;50.110;8.750;2024-01-27T11:08:48;102737.09;;;4.71;77.32
82728;BME280;72459;50.110;8.750;2024-01-27T11:11:14;102737.56;;;4.75;76.85
82728;BME280;72459;50.110;8.750;2024-01-27T11:13:39;102730.34;;;4.82;82.23
82728;BME280;72459;50.110;8.750;2024-01-27T11:16:05;102733.53;;;4.88;80.85
82728;BME280;72459;50.110;8.750;2024-01-27T11:18:31;102728.78;;;4.92;78.36
82728;BME280;72459;50.110;8.750;2024-01-27T11:20:58;102728.75;;;5.01;77.29
82728;BME280;72459;50.110;8.750;2024-01-27T11:23:34;102722.00;;;5.03;81.00
82728;BME280;72459;50.110;8.750;2024-01-27T11:26:07;102718.75;;;5.05;77.30
82728;BME280;72459;50.110;8.750;2024-01-27T11:28:33;102719.19;;;5.10;81.84
82728;BME280;72459;50.110;8.750;2024-01-27T11:31:03;102713.66;;;5.16;81.70
82728;BME280;72459;50.110;8.750;2024-01-27T11:33:29;102718.72;;;5.23;82.19
82728;BME280;72459;50.110;8.750;2024-01-27T11:36:04;102719.16;;;5.27;82.92
82728;BME280;72459;50.110;8.750;2024-01-27T11:38:32;102724.19;;;5.34;79.93
82728;BME280;72459;50.110;8.750;2024-01-27T11:41:01;102719.53;;;5.40;82.50
82728;BME280;72459;50.110;8.750;2024-01-27T11:43:27;102730.41;;;5.45;82.29
82728;BME280;72459;50.110;8.750;2024-01-27T11:46:00;102729.16;;;5.50;79.12
82728;BME280;72459;50.110;8.750;2024-01-27T11:48:25;102730.34;;;5.54;73.93
82728;BME280;72459;50.110;8.750;2024-01-27T11:51:11;102726.63;;;5.60;78.44
82728;BME280;72459;50.110;8.750;2024-01-27T11:53:37;102732.91;;;5.62;76.84
82728;BME280;72459;50.110;8.750;2024-01-27T11:56:03;102738.06;;;5.71;70.91
82728;BME280;72459;50.110;8.750;2024-01-27T11:58:30;102733.28;;;5.76;78.08
82728;BME280;72459;50.110;8.750;2024-01-27T12:00:59;102734.78;;;5.82;76.26
82728;BME280;72459;50.110;8.750;2024-01-27T12:03:26;102746.00;;;5.81;71.97
82728;BME280;72459;50.110;8.750;2024-01-27T12:05:52;102739.53;;;5.86;79.23
82728;BME280;72459;50.110;8.750;2024-01-27T12:08:18;102740.78;;;5.90;80.01
82728;BME280;72459;50.110;8.750;2024-01-27T12:10:43;102748.75;;;5.91;80.24
82728;BME280;72459;50.110;8.750;2024-01-27T12:13:09;102744.09;;;5.97;81.24
82728;BME280;72459;50.110;8.750;2024-01-27T12:15:35;102741.00;;;6.01;78.51
82728;BME280;72459;50.110;8.750;2024-01-27T12:18:00;102741.13;;;6.03;73.64
82728;BME280;72459;50.110;8.750;2024-01-27T12:20:26;102754.63;;;6.08;79.98
82728;BME280;72459;50.110;8.750;2024-01-27T12:23:05;102763.38;;;6.08;78.27
82728;BME280;72459;50.110;8.750;2024-01-27T12:25:31;102755.97;;;6.13;80.44
82728;BME280;72459;50.110;8.750;2024-01-27T12:27:56;102751.66;;;6.13;79.32
82728;BME280;72459;50.110;8.750;2024-01-27T12:30:26;102748.41;;;6.16;77.96
82728;BME280;72459;50.110;8.750;2024-01-27T12:32:52;102743.31;;;6.17;76.95
82728;BME280;72459;50.110;8.750;2024-01-27T12:35:17;102742.06;;;6.22;73.73
82728;BME280;72459;50.110;8.750;2024-01-27T12:37:44;102740.78;;;6.27;80.69
82728;BME280;72459;50.110;8.750;2024-01-27T12:40:20;102739.88;;;6.27;74.71
82728;BME280;72459;50.110;8.750;2024-01-27T12:42:46;102722.66;;;6.29;78.89
82728;BME280;72459;50.110;8.750;2024-01-27T12:45:11;102726.31;;;6.31;77.48
82728;BME280;72459;50.110;8.750;2024-01-27T12:47:37;102719.53;;;6.33;79.32
82728;BME280;72459;50.110;8.750;2024-01-27T12:50:03;102715.88;;;6.31;77.67
82728;BME280;72459;50.110;8.750;2024-01-27T12:52:28;102717.69;;;6.32;75.05
82728;BME280;72459;50.110;8.750;2024-01-27T12:54:54;102715.38;;;6.35;80.84